Time;durP1;ratioP1;P1;durP2;ratioP2;P2;SDS_P1;SDS_P2;PMS_P1;PMS_P2;Temp;Humidity;BMP_temperature;BMP_pressure;BME280_temperature;BME280_humidity;BME280_pressure;Samples;Min_cycle;Max_cycle;Signal;HPM_P1;HPM_P2
2021/01/13 00:01:37;;;;;;;150.68;81.97;;;0.90;2201.60;;;;;;4839627;29;20072;-78
2021/01/13 00:04:03;;;;;;;148.80;85.60;;;0.90;2201.60;;;;;;4842710;29;20079;-78
2021/01/13 00:06:29;;;;;;;148.80;82.90;;;25.60;2201.60;;;;;;4844613;29;20038;-78
2021/01/13 00:08:54;;;;;;;152.63;79.93;;;25.60;2201.60;;;;;;4842347;29;20090;-79
2021/01/13 00:11:20;;;;;;;161.82;89.30;;;25.60;2201.60;;;;;;4842270;29;20506;-79
2021/01/13 00:13:46;;;;;;;164.20;91.05;;;25.60;2201.60;;;;;;4843030;29;20034;-79
2021/01/13 00:16:15;;;;;;;180.80;96.50;;;25.70;2201.60;;;;;;4841983;29;20034;-78
2021/01/13 00:18:41;;;;;;;157.93;85.60;;;25.70;2201.60;;;;;;4841689;29;20570;-78
2021/01/13 00:21:17;;;;;;;161.55;88.60;;;25.70;2201.60;;;;;;4838189;29;20035;-78
2021/01/13 00:23:45;;;;;;;152.85;82.40;;;25.60;2201.60;;;;;;4833841;29;20120;-79
2021/01/13 00:26:18;;;;;;;156.43;84.70;;;25.70;2201.60;;;;;;4842642;29;20027;-78
2021/01/13 00:28:44;;;;;;;153.60;81.80;;;25.60;2201.60;;;;;;4842768;29;20022;-79
2021/01/13 00:31:11;;;;;;;144.45;75.90;;;25.60;2201.60;;;;;;4841970;29;20158;-78
2021/01/13 00:33:37;;;;;;;135.80;75.90;;;25.60;2201.60;;;;;;4842485;29;20026;-78
2021/01/13 00:36:03;;;;;;;138.88;80.55;;;25.60;2201.60;;;;;;4841547;29;20038;-78
2021/01/13 00:38:29;;;;;;;147.15;81.10;;;25.70;2201.60;;;;;;4843043;29;20026;-79
2021/01/13 00:40:55;;;;;;;151.75;79.88;;;25.70;2201.60;;;;;;4843480;29;20505;-79
2021/01/13 00:43:20;;;;;;;135.10;79.50;;;25.80;2201.60;;;;;;4842274;29;20034;-79
2021/01/13 00:45:46;;;;;;;153.10;80.97;;;25.70;2201.60;;;;;;4842754;29;20030;-79
2021/01/13 00:48:13;;;;;;;163.90;86.47;;;25.60;2201.60;;;;;;4841454;29;20037;-79
2021/01/13 00:50:38;;;;;;;151.10;82.05;;;25.60;2201.60;;;;;;4842514;29;20038;-77
2021/01/13 00:53:04;;;;;;;150.55;80.53;;;25.60;2201.60;;;;;;4843246;29;20482;-78
2021/01/13 00:55:30;;;;;;;162.45;85.20;;;25.60;2201.60;;;;;;4844235;29;20057;-77
2021/01/13 00:57:55;;;;;;;171.13;88.57;;;0.90;2201.60;;;;;;4843613;29;20033;-77
2021/01/13 01:00:21;;;;;;;166.10;90.03;;;0.90;2201.60;;;;;;4842834;29;20058;-77
2021/01/13 01:02:47;;;;;;;181.98;98.88;;;0.90;2201.60;;;;;;4842347;29;20094;-76
2021/01/13 01:05:13;;;;;;;163.63;90.72;;;0.90;2201.60;;;;;;4842454;29;20053;-76
2021/01/13 01:07:40;;;;;;;178.40;95.13;;;0.90;2201.60;;;;;;4843435;29;20037;-76
2021/01/13 01:10:07;;;;;;;179.88;96.75;;;0.90;2201.60;;;;;;4842090;29;20049;-76
2021/01/13 01:12:33;;;;;;;170.15;98.40;;;0.90;2201.60;;;;;;4843688;29;20041;-76
2021/01/13 01:14:59;;;;;;;152.55;86.18;;;25.60;2201.60;;;;;;4842810;29;20034;-76
2021/01/13 01:17:24;;;;;;;183.10;94.50;;;0.90;2201.60;;;;;;4843713;29;20104;-75
2021/01/13 01:19:50;;;;;;;197.13;102.35;;;25.60;2201.60;;;;;;4841595;29;20038;-76
2021/01/13 01:22:16;;;;;;;166.40;89.90;;;25.70;2201.60;;;;;;4843881;29;20061;-75
2021/01/13 01:24:42;;;;;;;153.82;82.72;;;25.90;2201.60;;;;;;4841936;29;20030;-77
2021/01/13 01:27:07;;;;;;;151.15;80.10;;;25.90;2201.60;;;;;;4842656;29;20043;-77
2021/01/13 01:29:33;;;;;;;147.20;81.63;;;26.00;2201.60;;;;;;4842058;29;20033;-77
2021/01/13 01:31:59;;;;;;;150.82;80.30;;;26.00;2201.60;;;;;;4843927;29;20058;-77
2021/01/13 01:34:24;;;;;;;148.02;79.97;;;26.10;2201.60;;;;;;4842920;29;20486;-77
2021/01/13 01:36:55;;;;;;;136.93;74.88;;;26.10;2201.60;;;;;;4843203;29;20479;-75
2021/01/13 01:39:20;;;;;;;150.20;83.72;;;26.10;2201.60;;;;;;4843211;29;20034;-75
2021/01/13 01:41:46;;;;;;;149.45;77.78;;;26.10;2201.60;;;;;;4842900;29;20030;-76
2021/01/13 01:44:12;;;;;;;149.10;78.50;;;26.10;2201.60;;;;;;4843198;29;20391;-75
2021/01/13 01:46:40;;;;;;;149.40;79.90;;;26.20;2201.60;;;;;;4842941;29;20100;-75
2021/01/13 01:49:09;;;;;;;151.82;75.70;;;26.20;2201.60;;;;;;4843053;29;20390;-77
2021/01/13 01:52:20;;;;;;;145.63;77.25;;;26.20;2201.60;;;;;;4843020;29;20069;-77
2021/01/13 01:54:54;;;;;;;138.77;76.65;;;26.20;2201.60;;;;;;4839580;29;20066;-77
2021/01/13 01:57:23;;;;;;;146.65;74.60;;;26.20;2201.60;;;;;;4843167;29;20045;-77
2021/01/13 02:00:03;;;;;;;142.98;75.32;;;26.20;2201.60;;;;;;4842210;29;20034;-77
2021/01/13 02:02:41;;;;;;;143.63;73.28;;;26.10;2201.60;;;;;;4841851;29;20121;-77
2021/01/13 02:05:09;;;;;;;141.13;73.35;;;26.10;2201.60;;;;;;4841602;29;20061;-77
2021/01/13 02:07:35;;;;;;;137.07;74.40;;;26.20;2201.60;;;;;;4840898;29;20121;-76
2021/01/13 02:10:03;;;;;;;145.02;73.07;;;26.20;2201.60;;;;;;4834607;29;20174;-76
2021/01/13 02:12:34;;;;;;;150.43;77.57;;;26.10;2201.60;;;;;;4843226;29;20514;-76
2021/01/13 02:15:03;;;;;;;137.30;71.70;;;26.10;2201.60;;;;;;4842429;29;20379;-76
2021/01/13 02:17:32;;;;;;;148.10;71.63;;;26.10;2201.60;;;;;;4843080;29;20030;-76
2021/01/13 02:20:06;;;;;;;139.93;67.80;;;26.00;2201.60;;;;;;4841982;29;20488;-76
2021/01/13 02:22:39;;;;;;;153.45;78.80;;;26.10;2201.60;;;;;;4840844;29;20041;-77
2021/01/13 02:25:13;;;;;;;139.38;71.95;;;26.10;2201.60;;;;;;4842562;29;20436;-76
2021/01/13 02:28:06;;;;;;;134.13;70.43;;;26.10;2201.60;;;;;;4840439;29;20398;-76
2021/01/13 02:30:57;;;;;;;141.18;70.70;;;26.00;2201.60;;;;;;4840537;29;20379;-76
2021/01/13 02:33:29;;;;;;;144.10;71.65;;;26.20;2201.60;;;;;;4843328;29;20117;-76
2021/01/13 02:36:13;;;;;;;150.27;71.75;;;26.10;2201.60;;;;;;4841901;29;20061;-76
2021/01/13 02:38:40;;;;;;;143.45;75.60;;;26.00;2201.60;;;;;;4841269;29;20073;-76
2021/01/13 02:41:14;;;;;;;130.02;69.22;;;26.00;2201.60;;;;;;4841390;29;20144;-76
2021/01/13 02:43:58;;;;;;;132.60;69.55;;;26.10;2201.60;;;;;;4841236;29;20026;-76
2021/01/13 02:46:36;;;;;;;134.30;69.90;;;26.10;2201.60;;;;;;4841726;29;20057;-76
2021/01/13 02:49:03;;;;;;;134.10;67.57;;;26.10;2201.60;;;;;;4843455;29;20036;-76
2021/01/13 02:51:31;;;;;;;124.15;63.75;;;26.10;2201.60;;;;;;4840961;29;20038;-76
2021/01/13 02:54:07;;;;;;;136.07;70.75;;;26.10;2201.60;;;;;;4843365;29;20029;-76
2021/01/13 02:56:40;;;;;;;128.05;66.00;;;26.10;2201.60;;;;;;4841933;29;20093;-76
2021/01/13 02:59:11;;;;;;;136.23;71.13;;;26.10;2201.60;;;;;;4841450;29;20074;-77
2021/01/13 03:01:41;;;;;;;120.95;66.63;;;26.20;2201.60;;;;;;4843074;29;20135;-76
2021/01/13 03:04:08;;;;;;;132.18;64.88;;;26.20;2201.60;;;;;;4841288;29;20198;-76
2021/01/13 03:06:37;;;;;;;115.75;61.42;;;26.10;2201.60;;;;;;4843068;29;20093;-76
2021/01/13 03:09:10;;;;;;;128.90;67.45;;;26.20;2201.60;;;;;;4842185;29;20038;-76
2021/01/13 03:11:37;;;;;;;121.80;64.30;;;26.30;2201.60;;;;;;4841112;29;20030;-76
2021/01/13 03:14:18;;;;;;;131.27;63.60;;;26.20;2201.60;;;;;;4840193;29;20498;-76
2021/01/13 03:17:05;;;;;;;119.43;62.28;;;26.20;2201.60;;;;;;4840575;29;20034;-76
2021/01/13 03:19:56;;;;;;;115.05;61.92;;;26.30;2201.60;;;;;;4839442;29;20398;-76
2021/01/13 03:22:28;;;;;;;112.35;60.00;;;26.30;2201.60;;;;;;4839837;29;20045;-76
2021/01/13 03:25:06;;;;;;;117.10;62.92;;;26.20;2201.60;;;;;;4841365;29;20026;-76
2021/01/13 03:27:33;;;;;;;123.45;64.65;;;26.20;2201.60;;;;;;4839923;29;20026;-76
2021/01/13 03:30:02;;;;;;;117.72;62.47;;;26.10;2201.60;;;;;;4840337;29;20501;-76
2021/01/13 03:32:41;;;;;;;125.50;63.58;;;26.20;2201.60;;;;;;4839533;29;20141;-76
2021/01/13 03:35:17;;;;;;;127.68;67.30;;;26.20;2201.60;;;;;;4839308;29;20042;-76
2021/01/13 03:37:58;;;;;;;115.18;63.33;;;26.20;2201.60;;;;;;4837284;29;20045;-76
2021/01/13 03:40:25;;;;;;;118.85;61.35;;;26.10;2201.60;;;;;;4840591;29;20041;-76
2021/01/13 03:42:54;;;;;;;126.45;63.00;;;26.10;2201.60;;;;;;4840778;29;20026;-76
2021/01/13 03:45:27;;;;;;;127.05;66.40;;;26.20;2201.60;;;;;;4840078;29;20068;-76
2021/01/13 03:48:09;;;;;;;130.95;64.88;;;26.20;2201.60;;;;;;4840734;29;20034;-76
2021/01/13 03:50:43;;;;;;;126.65;59.78;;;26.10;2201.60;;;;;;4841248;29;20030;-76
2021/01/13 03:53:11;;;;;;;121.97;64.22;;;26.10;2201.60;;;;;;4839461;29;20038;-75
2021/01/13 03:55:39;;;;;;;122.43;64.85;;;26.10;2201.60;;;;;;4839458;29;20663;-75
2021/01/13 03:58:08;;;;;;;128.95;66.82;;;26.10;2201.60;;;;;;4839875;29;20034;-75
2021/01/13 04:00:58;;;;;;;122.55;61.63;;;26.10;2201.60;;;;;;4840659;29;20079;-76
2021/01/13 04:03:31;;;;;;;133.43;64.35;;;26.00;2201.60;;;;;;4840522;29;20030;-76
2021/01/13 04:06:04;;;;;;;123.97;64.10;;;25.90;2201.60;;;;;;4839916;29;20057;-77
2021/01/13 04:08:39;;;;;;;127.70;61.75;;;25.90;2201.60;;;;;;4840590;29;20054;-76
2021/01/13 04:11:10;;;;;;;130.25;66.53;;;25.90;2201.60;;;;;;4841230;29;20026;-76
2021/01/13 04:13:36;;;;;;;121.20;61.80;;;25.90;2201.60;;;;;;4839877;29;20034;-76
2021/01/13 04:16:03;;;;;;;132.70;66.13;;;25.90;2201.60;;;;;;4840496;29;20033;-76
2021/01/13 04:18:29;;;;;;;120.43;65.05;;;26.00;2201.60;;;;;;4840874;29;20434;-76
2021/01/13 04:20:56;;;;;;;111.18;59.80;;;26.00;2201.60;;;;;;4839143;29;20038;-75
2021/01/13 04:23:22;;;;;;;127.20;62.60;;;26.00;2201.60;;;;;;4839697;29;20038;-76
2021/01/13 04:25:48;;;;;;;117.78;66.53;;;25.90;2201.60;;;;;;4840339;29;20033;-76
2021/01/13 04:28:14;;;;;;;150.43;71.03;;;26.00;2201.60;;;;;;4841213;29;20026;-77
2021/01/13 04:30:41;;;;;;;137.25;69.00;;;25.90;2201.60;;;;;;4838493;29;20520;-76
2021/01/13 04:33:07;;;;;;;129.40;67.57;;;25.90;2201.60;;;;;;4841041;29;20029;-76
2021/01/13 04:35:33;;;;;;;160.90;77.95;;;25.90;2201.60;;;;;;4839086;29;20538;-76
2021/01/13 04:37:59;;;;;;;159.73;85.07;;;25.80;2201.60;;;;;;4839102;29;20041;-76
2021/01/13 04:40:32;;;;;;;154.63;76.93;;;25.70;2201.60;;;;;;4839667;29;20066;-76
2021/01/13 04:43:01;;;;;;;150.40;77.22;;;25.70;2201.60;;;;;;4840489;29;20053;-75
2021/01/13 04:45:42;;;;;;;152.00;78.68;;;25.60;2201.60;;;;;;4840766;29;20027;-76
2021/01/13 04:48:14;;;;;;;160.27;82.68;;;25.60;2201.60;;;;;;4840479;29;20018;-76
2021/01/13 04:50:48;;;;;;;156.95;82.80;;;25.60;2201.60;;;;;;4842992;29;20494;-77
2021/01/13 04:53:21;;;;;;;164.52;87.18;;;25.60;2201.60;;;;;;4844110;29;20113;-77
2021/01/13 04:55:55;;;;;;;164.63;84.32;;;25.60;2201.60;;;;;;4842449;29;20082;-76
2021/01/13 04:58:20;;;;;;;174.25;82.88;;;25.60;2201.60;;;;;;4844033;29;20034;-76
2021/01/13 05:01:24;;;;;;;157.77;81.93;;;25.70;2201.60;;;;;;4843356;29;20063;-76
2021/01/13 05:03:58;;;;;;;161.45;77.65;;;25.60;2201.60;;;;;;4841807;29;20161;-76
2021/01/13 05:06:48;;;;;;;179.48;89.20;;;25.60;2201.60;;;;;;4842145;29;20034;-75
2021/01/13 05:09:16;;;;;;;151.52;81.32;;;25.60;2201.60;;;;;;4843925;29;20049;-76
2021/01/13 05:11:49;;;;;;;163.38;84.13;;;25.80;2201.60;;;;;;4843276;29;20054;-77
2021/01/13 05:14:17;;;;;;;139.25;68.97;;;25.80;2201.60;;;;;;4843086;29;20558;-77
2021/01/13 05:16:49;;;;;;;151.70;81.47;;;25.90;2201.60;;;;;;4842416;29;20150;-77
2021/01/13 05:19:30;;;;;;;149.85;79.53;;;25.80;2201.60;;;;;;4841910;29;20034;-78
2021/01/13 05:22:00;;;;;;;148.40;73.15;;;25.80;2201.60;;;;;;4844123;29;20030;-77
2021/01/13 05:24:28;;;;;;;155.55;80.25;;;25.90;2201.60;;;;;;4843821;29;20024;-77
2021/01/13 05:27:03;;;;;;;148.57;77.50;;;25.90;2201.60;;;;;;4843253;29;20390;-77
2021/01/13 05:29:32;;;;;;;145.18;78.40;;;26.00;2201.60;;;;;;4843085;29;20034;-77
2021/01/13 05:32:03;;;;;;;159.48;85.88;;;26.00;2201.60;;;;;;4841962;29;20070;-76
2021/01/13 05:34:34;;;;;;;138.52;77.80;;;26.00;2201.60;;;;;;4843437;29;20034;-76
2021/01/13 05:37:49;;;;;;;142.05;73.45;;;26.10;2201.60;;;;;;4841653;29;20604;-77
2021/01/13 05:40:16;;;;;;;153.38;74.28;;;26.00;2201.60;;;;;;4786883;30;20035;-76
2021/01/13 05:42:42;;;;;;;147.30;77.22;;;25.90;2201.60;;;;;;4786660;29;20110;-76
2021/01/13 05:45:09;;;;;;;143.30;73.90;;;26.00;2201.60;;;;;;4772151;30;20035;-77
2021/01/13 05:47:51;;;;;;;153.27;80.95;;;25.90;2201.60;;;;;;4771221;30;20529;-76
2021/01/13 05:50:18;;;;;;;161.55;84.88;;;25.80;2201.60;;;;;;4786749;29;20118;-77
2021/01/13 05:52:53;;;;;;;146.15;72.70;;;25.80;2201.60;;;;;;4786151;29;20081;-77
2021/01/13 05:55:20;;;;;;;148.48;75.38;;;25.70;2201.60;;;;;;4782153;30;20138;-77
2021/01/13 05:57:56;;;;;;;157.73;83.93;;;25.80;2201.60;;;;;;4786608;29;20050;-76
2021/01/13 06:00:24;;;;;;;157.05;84.97;;;25.80;2201.60;;;;;;4786176;29;20031;-77
2021/01/13 06:02:57;;;;;;;161.48;85.40;;;25.70;2201.60;;;;;;4771903;29;20031;-77
2021/01/13 06:05:24;;;;;;;184.50;93.82;;;25.70;2201.60;;;;;;4771958;30;20507;-77
2021/01/13 06:07:52;;;;;;;158.95;85.40;;;25.70;2201.60;;;;;;4771267;30;20035;-77
2021/01/13 06:10:19;;;;;;;160.77;82.55;;;25.80;2201.60;;;;;;4803463;29;20816;-77
2021/01/13 06:12:49;;;;;;;162.82;83.03;;;25.90;2201.60;;;;;;4842808;29;20041;-77
2021/01/13 06:15:22;;;;;;;150.65;83.03;;;25.90;2201.60;;;;;;4841538;29;20114;-76
2021/01/13 06:17:50;;;;;;;153.88;77.47;;;26.00;2201.60;;;;;;4841582;29;20032;-77
2021/01/13 06:20:30;;;;;;;142.40;77.18;;;26.00;2201.60;;;;;;4842301;29;20034;-77
2021/01/13 06:22:58;;;;;;;149.77;77.55;;;26.00;2201.60;;;;;;4843156;29;20026;-76
2021/01/13 06:25:28;;;;;;;157.13;80.90;;;25.90;2201.60;;;;;;4842510;29;20022;-76
2021/01/13 06:28:23;;;;;;;155.38;87.85;;;25.80;2201.60;;;;;;4841885;29;20074;-76
2021/01/13 06:31:02;;;;;;;186.55;90.43;;;25.80;2201.60;;;;;;4841285;29;20026;-75
2021/01/13 06:33:34;;;;;;;167.38;89.05;;;25.70;2201.60;;;;;;4840325;29;20743;-76
2021/01/13 06:36:31;;;;;;;189.07;96.90;;;25.70;2201.60;;;;;;4841951;29;20569;-76
2021/01/13 06:39:01;;;;;;;173.60;95.30;;;25.70;2201.60;;;;;;4842935;29;20106;-76
2021/01/13 06:41:28;;;;;;;204.45;106.72;;;25.70;2201.60;;;;;;4842445;29;20037;-75
2021/01/13 06:44:02;;;;;;;190.15;101.78;;;25.70;2201.60;;;;;;4842198;29;20022;-76
2021/01/13 06:46:29;;;;;;;180.68;94.88;;;25.70;2201.60;;;;;;4842320;29;20030;-76
2021/01/13 06:48:56;;;;;;;192.88;99.05;;;25.70;2201.60;;;;;;4840795;29;20029;-76
2021/01/13 06:51:23;;;;;;;198.05;103.50;;;25.80;2201.60;;;;;;4841759;29;20033;-76
2021/01/13 06:53:49;;;;;;;182.80;104.03;;;25.90;2201.60;;;;;;4840602;29;20078;-76
2021/01/13 06:56:16;;;;;;;192.45;100.75;;;25.60;2201.60;;;;;;4841300;29;20036;-76
2021/01/13 06:59:02;;;;;;;179.80;99.20;;;25.70;2201.60;;;;;;4841424;29;20062;-76
2021/01/13 07:01:29;;;;;;;189.98;98.03;;;25.70;2201.60;;;;;;4840856;29;20797;-76
2021/01/13 07:04:04;;;;;;;196.82;103.60;;;25.80;2201.60;;;;;;4841450;29;20130;-77
2021/01/13 07:06:31;;;;;;;187.63;101.10;;;25.70;2201.60;;;;;;4841357;29;20041;-77
2021/01/13 07:08:57;;;;;;;173.52;95.05;;;25.70;2201.60;;;;;;4841211;29;20033;-77
2021/01/13 07:11:25;;;;;;;177.90;91.40;;;25.80;2201.60;;;;;;4841126;29;20461;-77
2021/01/13 07:13:54;;;;;;;172.88;97.45;;;25.80;2201.60;;;;;;4841945;29;20041;-77
2021/01/13 07:16:27;;;;;;;171.15;92.40;;;25.80;2201.60;;;;;;4842849;29;20046;-76
2021/01/13 07:18:59;;;;;;;169.80;85.78;;;25.80;2201.60;;;;;;4842167;29;20030;-76
2021/01/13 07:21:36;;;;;;;155.13;77.50;;;25.80;2201.60;;;;;;4842881;29;20037;-77
2021/01/13 07:24:10;;;;;;;155.48;87.07;;;25.80;2201.60;;;;;;4840983;29;20022;-77
2021/01/13 07:26:38;;;;;;;170.32;93.13;;;25.90;2201.60;;;;;;4841014;29;20037;-77
2021/01/13 07:29:04;;;;;;;159.18;87.13;;;25.90;2201.60;;;;;;4841497;29;20049;-76
2021/01/13 07:31:30;;;;;;;171.90;87.93;;;25.90;2201.60;;;;;;4841780;29;20037;-76
2021/01/13 07:34:02;;;;;;;157.25;85.07;;;26.00;2201.60;;;;;;4842432;29;20082;-77
2021/01/13 07:36:32;;;;;;;162.65;87.10;;;25.90;2201.60;;;;;;4840514;29;20106;-77
2021/01/13 07:39:04;;;;;;;160.50;85.88;;;25.90;2201.60;;;;;;4841506;29;20030;-77
2021/01/13 07:42:07;;;;;;;150.30;81.18;;;26.00;2201.60;;;;;;4841385;29;20037;-77
2021/01/13 07:44:42;;;;;;;134.95;75.10;;;26.00;2201.60;;;;;;4840099;29;20382;-77
2021/01/13 07:47:28;;;;;;;137.98;78.70;;;26.10;2201.60;;;;;;4841268;29;20030;-78
2021/01/13 07:50:09;;;;;;;135.40;75.33;;;26.10;2201.60;;;;;;4840580;29;20041;-77
2021/01/13 07:52:38;;;;;;;144.50;80.18;;;26.10;2201.60;;;;;;4830669;29;20258;-77
2021/01/13 07:55:09;;;;;;;137.60;81.85;;;26.20;2201.60;;;;;;4841161;29;20041;-77
2021/01/13 07:58:03;;;;;;;143.65;82.63;;;26.10;2201.60;;;;;;4842263;29;20033;-77
2021/01/13 08:00:33;;;;;;;131.27;71.38;;;26.20;2201.60;;;;;;4841570;29;20174;-76
2021/01/13 08:03:29;;;;;;;129.48;73.00;;;26.30;2201.60;;;;;;4842012;29;21453;-76
2021/01/13 08:06:29;;;;;;;116.70;64.57;;;26.30;2201.60;;;;;;4843166;29;20053;-77
2021/01/13 08:09:12;;;;;;;110.63;62.10;;;26.30;2201.60;;;;;;4839435;29;20326;-77
2021/01/13 08:11:38;;;;;;;106.55;60.80;;;26.30;2201.60;;;;;;4839649;29;20033;-77
2021/01/13 08:14:44;;;;;;;108.10;59.17;;;26.30;2201.60;;;;;;4839199;29;20026;-77
2021/01/13 08:17:37;;;;;;;96.30;56.90;;;26.30;2201.60;;;;;;4839270;29;20061;-76
2021/01/13 08:20:25;;;;;;;112.03;60.92;;;26.30;2201.60;;;;;;4839070;29;20615;-77
2021/01/13 08:22:59;;;;;;;100.85;59.20;;;26.30;2201.60;;;;;;4839104;29;20435;-77
2021/01/13 08:25:27;;;;;;;100.40;60.83;;;26.20;2201.60;;;;;;4841500;29;20029;-77
2021/01/13 08:27:58;;;;;;;110.47;62.95;;;26.20;2201.60;;;;;;4842845;29;20501;-76
2021/01/13 08:30:29;;;;;;;102.40;57.38;;;26.10;2201.60;;;;;;4842970;29;20522;-77
2021/01/13 08:32:56;;;;;;;108.32;61.35;;;26.20;2201.60;;;;;;4843908;29;21297;-77
2021/01/13 08:35:36;;;;;;;109.43;62.95;;;26.30;2201.60;;;;;;4843223;29;20030;-77
2021/01/13 08:38:08;;;;;;;102.30;58.22;;;26.30;2201.60;;;;;;4842617;29;20034;-76
2021/01/13 08:40:35;;;;;;;101.57;62.35;;;26.40;2201.60;;;;;;4842400;29;20030;-76
2021/01/13 08:43:15;;;;;;;90.93;53.92;;;26.50;2201.60;;;;;;4843414;29;20390;-76
2021/01/13 08:45:52;;;;;;;104.30;60.13;;;51.20;2227.20;;;;;;4836156;29;20070;-76
2021/01/13 08:48:22;;;;;;;94.20;56.65;;;51.30;2227.20;;;;;;4844040;29;20063;-77
2021/01/13 08:51:08;;;;;;;91.30;54.13;;;51.40;2201.60;;;;;;4826605;29;20493;-77
2021/01/13 08:53:34;;;;;;;94.53;55.03;;;51.50;2201.60;;;;;;4826771;29;20046;-77
2021/01/13 08:56:00;;;;;;;82.97;47.58;;;51.60;2201.60;;;;;;4841779;29;20034;-77
2021/01/13 08:58:33;;;;;;;89.28;51.35;;;51.70;2150.40;;;;;;4843551;29;20030;-77
2021/01/13 09:01:08;;;;;;;92.80;52.08;;;51.70;2176.00;;;;;;4843705;29;20026;-77
2021/01/13 09:03:39;;;;;;;89.50;54.53;;;51.80;2150.40;;;;;;4842617;29;20383;-78
2021/01/13 09:06:22;;;;;;;87.68;48.10;;;51.80;2150.40;;;;;;4841418;29;20746;-76
2021/01/13 09:08:53;;;;;;;97.38;55.28;;;52.00;2124.80;;;;;;4843396;29;20054;-76
2021/01/13 09:11:37;;;;;;;83.32;51.15;;;76.80;2124.80;;;;;;4842523;29;20126;-76
2021/01/13 09:14:22;;;;;;;75.75;47.63;;;76.90;2099.20;;;;;;4841432;29;20066;-76
2021/01/13 09:16:50;;;;;;;68.80;44.47;;;77.00;2073.60;;;;;;4843268;29;20026;-76
2021/01/13 09:19:38;;;;;;;69.70;43.78;;;77.10;2048.00;;;;;;4842300;29;20070;-75
2021/01/13 09:22:09;;;;;;;78.00;47.10;;;77.30;2048.00;;;;;;4842290;29;20372;-75
2021/01/13 09:24:42;;;;;;;85.15;51.28;;;77.30;2048.00;;;;;;4841641;29;20030;-75
2021/01/13 09:27:10;;;;;;;71.32;44.20;;;77.20;2073.60;;;;;;4843183;29;20085;-75
2021/01/13 09:29:53;;;;;;;78.68;47.38;;;77.20;2048.00;;;;;;4842901;29;20030;-75
2021/01/13 09:32:23;;;;;;;79.18;51.15;;;77.20;2073.60;;;;;;4843354;29;20038;-75
2021/01/13 09:34:50;;;;;;;73.50;45.20;;;77.20;2073.60;;;;;;4840889;29;20037;-76
2021/01/13 09:37:17;;;;;;;83.00;49.28;;;77.10;2073.60;;;;;;4840852;29;20106;-75
2021/01/13 09:40:01;;;;;;;72.40;45.35;;;76.90;2073.60;;;;;;4841817;29;20086;-75
2021/01/13 09:42:41;;;;;;;69.63;44.75;;;76.90;2099.20;;;;;;4841560;29;20486;-75
2021/01/13 09:45:09;;;;;;;73.97;44.90;;;77.20;2099.20;;;;;;4842502;29;20037;-75
2021/01/13 09:47:36;;;;;;;67.85;40.88;;;77.30;2048.00;;;;;;4841326;29;20049;-74
2021/01/13 09:50:04;;;;;;;74.65;43.28;;;77.40;2073.60;;;;;;4840921;29;20042;-75
2021/01/13 09:52:41;;;;;;;60.38;41.30;;;77.60;2048.00;;;;;;4842168;29;20079;-75
2021/01/13 09:55:08;;;;;;;60.65;39.10;;;102.40;2022.40;;;;;;4841695;29;20030;-75
2021/01/13 09:57:36;;;;;;;64.07;39.88;;;102.40;1996.80;;;;;;4840760;29;20034;-75
2021/01/13 10:00:08;;;;;;;65.32;40.90;;;77.70;1996.80;;;;;;4842552;29;20408;-74
2021/01/13 10:02:33;;;;;;;70.97;40.47;;;77.70;1996.80;;;;;;4840411;29;20044;-74
2021/01/13 10:04:59;;;;;;;67.05;44.47;;;77.70;1996.80;;;;;;4841438;29;20054;-74
2021/01/13 10:07:33;;;;;;;55.50;37.00;;;102.50;1996.80;;;;;;4841919;29;20065;-73
2021/01/13 10:10:02;;;;;;;65.10;38.55;;;102.40;1996.80;;;;;;4828658;29;20091;-75
2021/01/13 10:12:38;;;;;;;54.90;38.72;;;102.50;1996.80;;;;;;4836876;29;20543;-75
2021/01/13 10:15:05;;;;;;;;;;;77.60;1996.80;;;;;;4842404;29;20108;-74
2021/01/13 10:17:33;;;;;;;69.55;41.50;;;77.60;2022.40;;;;;;4842387;29;19917;-75
2021/01/13 10:20:12;;;;;;;70.10;45.03;;;77.50;2048.00;;;;;;4840409;29;20037;-74
2021/01/13 10:22:39;;;;;;;69.65;42.47;;;77.40;2073.60;;;;;;4841918;29;20026;-74
2021/01/13 10:25:06;;;;;;;61.58;39.20;;;77.50;2048.00;;;;;;4841231;29;20024;-74
2021/01/13 10:27:32;;;;;;;52.30;35.75;;;77.40;2048.00;;;;;;4840240;29;20033;-75
2021/01/13 10:29:58;;;;;;;64.45;41.33;;;77.40;2048.00;;;;;;4842025;29;20432;-74
2021/01/13 10:32:24;;;;;;;60.28;38.90;;;77.40;2073.60;;;;;;4839803;29;20122;-74
2021/01/13 10:34:56;;;;;;;63.88;41.50;;;77.50;2048.00;;;;;;4841714;29;20486;-74
2021/01/13 10:37:22;;;;;;;59.03;38.95;;;77.70;2022.40;;;;;;4841222;29;20089;-74
2021/01/13 10:39:48;;;;;;;63.03;38.88;;;102.40;2022.40;;;;;;4841511;29;20038;-74
2021/01/13 10:42:15;;;;;;;55.85;36.00;;;102.40;1996.80;;;;;;4841218;29;20029;-74
2021/01/13 10:44:42;;;;;;;51.63;34.90;;;102.50;1996.80;;;;;;4841563;29;20494;-74
2021/01/13 10:47:09;;;;;;;61.45;36.97;;;102.70;1971.20;;;;;;4839315;29;20030;-75
2021/01/13 10:49:42;;;;;;;56.92;34.90;;;102.90;1971.20;;;;;;4841104;29;20034;-75
2021/01/13 10:52:15;;;;;;;55.38;36.35;;;102.90;1945.60;;;;;;4841196;29;20065;-75
2021/01/13 10:54:44;;;;;;;53.65;34.22;;;102.90;1945.60;;;;;;4841053;29;20549;-75
2021/01/13 10:57:12;;;;;;;52.15;36.95;;;103.00;1920.00;;;;;;4841776;29;20026;-76
2021/01/13 10:59:40;;;;;;;50.72;32.72;;;103.20;1920.00;;;;;;4839845;29;20054;-75
2021/01/13 11:02:13;;;;;;;53.08;32.75;;;128.00;1920.00;;;;;;4842163;29;20065;-76
2021/01/13 11:04:46;;;;;;;49.30;33.00;;;128.00;1894.40;;;;;;4826075;29;20053;-76
2021/01/13 11:07:19;;;;;;;43.10;27.13;;;103.30;1843.20;;;;;;4839924;29;20038;-75
2021/01/13 11:09:50;;;;;;;41.45;26.73;;;128.00;1868.80;;;;;;4840320;29;20030;-75
2021/01/13 11:12:20;;;;;;;42.33;23.88;;;128.10;1843.20;;;;;;4840141;29;20117;-75
2021/01/13 11:14:49;;;;;;;42.60;27.48;;;128.40;1817.60;;;;;;4825239;29;20375;-76
2021/01/13 11:17:20;;;;;;;47.65;29.33;;;128.40;1792.00;;;;;;4842546;29;20109;-76
2021/01/13 11:19:56;;;;;;;63.17;34.22;;;128.70;1766.40;;;;;;4825101;29;20058;-76
2021/01/13 11:22:44;;;;;;;54.38;32.33;;;128.60;1792.00;;;;;;4841793;29;20025;-77
2021/01/13 11:25:23;;;;;;;42.00;27.40;;;128.70;1792.00;;;;;;4840643;29;20062;-77
2021/01/13 11:27:57;;;;;;;36.15;23.45;;;153.70;1740.80;;;;;;4840447;29;20026;-77
2021/01/13 11:30:22;;;;;;;47.05;26.27;;;128.80;1740.80;;;;;;4837416;29;20125;-77
2021/01/13 11:33:05;;;;;;;39.80;26.45;;;128.80;1766.40;;;;;;4841434;29;20565;-77
2021/01/13 11:35:33;;;;;;;44.60;29.23;;;153.70;1766.40;;;;;;4840633;29;20038;-78
2021/01/13 11:38:34;;;;;;;34.30;22.08;;;153.70;1715.20;;;;;;4840893;29;20400;-78
2021/01/13 11:41:06;;;;;;;35.13;21.92;;;153.60;1715.20;;;;;;4767680;30;20040;-78
2021/01/13 11:44:19;;;;;;;37.50;25.67;;;153.90;1689.60;;;;;;4751962;30;20123;-79
2021/01/13 11:47:10;;;;;;;34.33;20.95;;;153.90;1715.20;;;;;;4748038;29;20068;-79
2021/01/13 11:50:04;;;;;;;32.58;21.48;;;153.90;1664.00;;;;;;4749411;30;20040;-77
2021/01/13 11:52:33;;;;;;;33.42;18.92;;;153.90;1664.00;;;;;;4745423;30;20147;-78
2021/01/13 11:54:59;;;;;;;30.17;18.73;;;153.60;1664.00;;;;;;4750640;30;20064;-77
2021/01/13 11:57:31;;;;;;;25.27;17.17;;;153.80;1689.60;;;;;;4750161;30;20045;-77
2021/01/13 12:00:16;;;;;;;31.35;20.00;;;153.90;1664.00;;;;;;4754130;30;20592;-77
2021/01/13 12:03:01;;;;;;;26.77;18.45;;;154.00;1638.40;;;;;;4753728;30;20070;-76
2021/01/13 12:05:28;;;;;;;26.92;18.38;;;154.10;1612.80;;;;;;4753510;30;20044;-76
2021/01/13 12:08:10;;;;;;;30.45;19.08;;;154.10;1638.40;;;;;;4754292;30;20102;-76
2021/01/13 12:10:43;;;;;;;31.98;20.17;;;154.20;1638.40;;;;;;4738421;30;20140;-76
2021/01/13 12:13:13;;;;;;;29.38;20.08;;;154.30;1638.40;;;;;;4753253;30;20036;-77
2021/01/13 12:15:47;;;;;;;30.77;17.88;;;154.30;1638.40;;;;;;4753384;30;20040;-77
2021/01/13 12:18:23;;;;;;;30.15;19.45;;;154.10;1638.40;;;;;;4791003;29;20087;-77
2021/01/13 12:20:50;;;;;;;31.03;19.63;;;154.50;1612.80;;;;;;4784813;30;20488;-77
2021/01/13 12:23:19;;;;;;;31.27;19.65;;;179.30;1612.80;;;;;;4821248;29;20510;-76
2021/01/13 12:25:46;;;;;;;28.40;18.42;;;179.20;1638.40;;;;;;4843931;29;20038;-77
2021/01/13 12:28:11;;;;;;;29.00;19.33;;;179.40;1612.80;;;;;;4845347;29;20030;-79